Flight Track Log - Related Links

Times and Time Zones

All times are in EDT time to prevent confusion due to time zone crossing. See the RPA3392 flight status page for this flight to view local times or setup timezone preferences in your user account.

Time Position Orientation Groundspeed Altitude Reporting Facility
EDT Latitude Longitude Course Direction KTS MPH feet Rate Location/Type
Wed 11:42:58 PM 38.7667 -77.0333 83° East 217 250 2,500  Level Potomac TRACON
Wed 11:43:58 PM 38.7667 -76.9500 90° East 297 342 5,200 2,958 Climbing Potomac TRACON
Wed 11:44:00 PM 38.9716 -76.6735 57° Northeast  Level FlightAware Approximate
Wed 11:45:00 PM 39.0206 -76.5549 67° East  Level FlightAware Approximate
Wed 11:45:22 PM 38.8525 -76.8606 39° Northeast 315 362 9,600  Level Washington Center
Wed 11:46:00 PM 39.0665 -76.4338 63° Northeast  Level FlightAware Approximate
Wed 11:46:22 PM 38.9239 -76.7950 36° Northeast 306 352 11,000  Level Washington Center
Wed 11:47:00 PM 39.1167 -76.3155 90° East  Level FlightAware Approximate
Wed 11:47:21 PM 38.9753 -76.6703 62° Northeast 339 390 13,200  Level Washington Center
Wed 11:48:00 PM 39.1519 -76.1975 83° East  Level FlightAware Approximate
Wed 11:48:22 PM 39.0242 -76.5403 64° Northeast 369 425 15,300  Level Washington Center
Wed 11:49:20 PM 39.0794 -76.4072 62° Northeast 393 452 15,900 446 Climbing Washington Center
Wed 11:50:23 PM 39.1322 -76.2739 63° Northeast 407 468 16,200 1,350 Climbing Washington Center
Wed 11:51:20 PM 39.1769 -76.1297 68° East 421 484 18,600 2,000 Climbing Washington Center
Wed 11:52:20 PM 39.1878 -75.9719 85° East 428 493 20,100 1,500 Climbing Washington Center
Wed 11:53:20 PM 39.2361 -75.8219 67° East 439 505 21,600 1,574 Climbing Washington Center
Wed 11:54:22 PM 39.3258 -75.7017 46° Northeast 440 506 23,300 1,146 Climbing Washington Center
Wed 11:56:18 PM 39.4900 -75.4814 46° Northeast 471 542 25,000 583 Climbing New York Center
Wed 11:57:17 PM 39.5803 -75.3608 46° Northeast 476 548 25,000  Level New York Center
Wed 11:58:19 PM 39.6706 -75.2344 47° Northeast 476 548 25,000  Level New York Center
Wed 11:59:18 PM 39.7608 -75.1078 47° Northeast 476 548 25,000  Level New York Center
Thu 12:00:17 AM 39.8486 -74.9836 47° Northeast 476 548 25,000  Level New York Center
Thu 12:01:19 AM 39.9464 -74.8731 41° Northeast 476 548 25,000  Level New York Center
Thu 12:02:19 AM 40.0750 -74.8289 15° North 452 520 25,000  Level New York Center
Thu 12:03:17 AM 40.1933 -74.7842 16° North 447 514 25,000  Level New York Center
Thu 12:04:19 AM 40.3283 -74.7322 16° North 447 514 25,000  Level New York Center
Thu 12:05:17 AM 40.4508 -74.6875 16° North 447 514 25,000  Level New York Center
Thu 12:06:17 AM 40.5753 -74.6428 15° North 452 520 25,000  Level New York Center
Thu 12:08:32 AM 40.8408 -74.5389 16° North 469 540 25,000  Level Boston Center
Thu 12:09:32 AM 40.9667 -74.4908 16° North 464 534 25,000  Level Boston Center
Thu 12:10:32 AM 41.1008 -74.4425 15° North 458 527 25,000  Level Boston Center
Thu 12:11:32 AM 41.2289 -74.3942 16° North 458 527 25,000  Level Boston Center
Thu 12:12:32 AM 41.3569 -74.3456 16° North 463 533 25,000  Level Boston Center
Thu 12:13:32 AM 41.4806 -74.2967 17° North 463 533 25,000  Level Boston Center
Thu 12:14:32 AM 41.5939 -74.2556 15° North 463 533 25,000 -1,100 Level Boston Center
Thu 12:15:32 AM 41.7197 -74.2061 16° North 468 539 22,800 -2,650 Descending Boston Center
Thu 12:16:32 AM 41.8350 -74.1650 15° North 447 514 19,700 -3,500 Descending Boston Center
Thu 12:17:32 AM 41.9483 -74.1150 18° North 400 460 15,800 -3,400 Descending Boston Center
Thu 12:18:32 AM 42.0467 -74.0783 15° North 376 433 12,900 -2,400 Descending Boston Center
Thu 12:19:32 AM 42.1433 -74.0333 19° North 364 419 11,000 -1,200 Descending Boston Center
Thu 12:20:32 AM 42.2333 -73.9936 18° North 351 404 10,500 -850 Descending Boston Center
Thu 12:21:32 AM 42.3153 -73.9564 19° North 323 372 9,300 -1,950 Descending Boston Center
Thu 12:22:32 AM 42.3867 -73.9242 18° North 278 320 6,600 -2,550 Descending Boston Center
Thu 12:23:32 AM 42.4558 -73.8922 19° North 265 305 4,200 -2,250 Descending Boston Center
Thu 12:24:32 AM 42.5228 -73.8600 20° North 258 297 2,100 -1,792 Descending Boston Center
Thu 12:24:49 AM 42.5417 -73.8547 12° North 252 290 1,900 -200 Descending Boston Center
Thu 12:25:32 AM 42.5814 -73.8358 19° North 231 266 1,900  Level Boston Center
Thu 12:25:50 AM 42.5942 -73.8306 17° North 187 215 1,900  Level Boston Center
Thu 12:26:32 AM 42.6403 -73.8089 19° North 215 247 1,900  Level Boston Center
Thu 12:26:56 AM 42.6486 -73.8036 25° Northeast 174 200 1,900 -462 Level Boston Center
Thu 12:28:03 AM 42.6881 -73.8044 359° North 123 142 1,200 -656 Descending Boston Center
Thu 12:29:04 AM 42.7297 -73.8081 356° North 136 157 500 -689 Descending Boston Center

Login

Don't have an account? Register now (free) for customized features, flight alerts, and more!